Time;durP1;ratioP1;P1;durP2;ratioP2;P2;SDS_P1;SDS_P2;PMS_P1;PMS_P2;Temp;Humidity;BMP_temperature;BMP_pressure;BME280_temperature;BME280_humidity;BME280_pressure;Samples;Min_cycle;Max_cycle;Signal;HPM_P1;HPM_P2
2024/01/22 00:04:55;;;;;;;8.30;7.37;;;1.80;35.40;;;;;;10349847;28;20318;-74
2024/01/22 00:09:58;;;;;;;9.00;7.33;;;1.60;35.40;;;;;;10352705;28;20248;-75
2024/01/22 00:15:03;;;;;;;8.70;7.27;;;1.50;35.60;;;;;;10353903;28;20309;-75
2024/01/22 00:20:08;;;;;;;8.03;6.33;;;1.50;35.80;;;;;;10351101;28;20240;-75
2024/01/22 00:25:11;;;;;;;6.63;5.80;;;1.50;35.80;;;;;;10349733;28;20230;-75
2024/01/22 00:30:16;;;;;;;7.50;6.67;;;1.50;35.70;;;;;;10353006;28;20245;-75
2024/01/22 00:35:20;;;;;;;9.33;6.87;;;1.50;35.70;;;;;;10351672;28;20309;-75
2024/01/22 00:40:23;;;;;;;8.17;6.67;;;1.60;35.80;;;;;;10350438;28;20307;-74
2024/01/22 00:45:28;;;;;;;8.30;6.97;;;1.60;35.70;;;;;;10355175;28;21146;-75
2024/01/22 00:50:31;;;;;;;9.47;6.33;;;1.60;35.70;;;;;;10352149;28;20252;-75
2024/01/22 00:55:34;;;;;;;7.53;6.67;;;1.60;35.50;;;;;;10352584;28;20249;-75
2024/01/22 01:00:39;;;;;;;7.00;6.20;;;1.60;35.40;;;;;;10353718;28;20315;-74
2024/01/22 01:05:42;;;;;;;7.93;6.47;;;1.60;35.50;;;;;;10344700;28;20230;-74
2024/01/22 01:10:45;;;;;;;7.23;5.93;;;1.50;35.30;;;;;;10352888;28;20243;-75
2024/01/22 01:15:50;;;;;;;7.10;6.40;;;1.50;35.20;;;;;;10345400;28;20258;-74
2024/01/22 01:20:53;;;;;;;6.43;5.70;;;1.30;35.30;;;;;;10348720;28;20227;-74
2024/01/22 01:25:56;;;;;;;9.07;6.30;;;1.20;35.50;;;;;;10348378;28;20245;-75
2024/01/22 01:31:01;;;;;;;6.77;5.90;;;1.10;35.70;;;;;;10348399;28;20309;-75
2024/01/22 01:36:05;;;;;;;7.87;6.10;;;1.10;35.80;;;;;;10345865;28;20252;-75
2024/01/22 01:41:08;;;;;;;7.57;5.73;;;1.10;36.40;;;;;;10345826;28;21254;-74
2024/01/22 01:46:12;;;;;;;8.10;5.83;;;1.10;35.60;;;;;;10346271;28;20227;-75
2024/01/22 01:51:17;;;;;;;8.20;5.57;;;1.20;35.60;;;;;;10348825;28;20241;-74
2024/01/22 01:56:20;;;;;;;6.60;6.00;;;1.20;35.60;;;;;;10347425;28;20308;-75
2024/01/22 02:01:25;;;;;;;5.73;5.07;;;1.20;35.60;;;;;;10348815;28;20636;-75
2024/01/22 02:06:28;;;;;;;6.23;5.63;;;1.20;35.50;;;;;;10349674;28;20228;-75
2024/01/22 02:11:31;;;;;;;5.53;4.97;;;1.10;35.30;;;;;;10342897;28;20234;-75
2024/01/22 02:16:36;;;;;;;6.07;5.03;;;1.00;35.30;;;;;;10349569;28;20760;-75
2024/01/22 02:21:39;;;;;;;5.33;4.77;;;1.00;35.30;;;;;;10345088;28;20235;-75
2024/01/22 02:26:44;;;;;;;7.60;5.90;;;0.90;35.50;;;;;;10354289;28;20240;-74
2024/01/22 02:31:49;;;;;;;6.53;5.10;;;0.80;36.10;;;;;;10349536;28;20629;-75
2024/01/22 02:36:52;;;;;;;6.03;4.97;;;0.70;36.40;;;;;;10345393;28;20310;-75
2024/01/22 02:41:56;;;;;;;5.60;5.00;;;0.60;36.50;;;;;;10348578;28;20718;-75
2024/01/22 02:47:00;;;;;;;5.53;4.37;;;0.60;36.70;;;;;;10343504;28;20237;-75
2024/01/22 02:52:03;;;;;;;8.60;4.73;;;0.60;36.60;;;;;;10345266;28;20230;-74
2024/01/22 02:57:09;;;;;;;4.83;4.43;;;0.60;36.50;;;;;;10351886;28;20233;-75
2024/01/22 03:02:13;;;;;;;6.07;4.50;;;0.60;36.60;;;;;;10350102;28;20314;-75
2024/01/22 03:07:16;;;;;;;6.00;4.73;;;0.60;36.50;;;;;;10355665;28;20243;-74
2024/01/22 03:12:21;;;;;;;5.23;4.07;;;0.80;36.50;;;;;;10363967;28;20236;-75
2024/01/22 03:17:24;;;;;;;5.03;4.47;;;0.70;36.50;;;;;;10357712;28;20237;-75
2024/01/22 03:22:28;;;;;;;5.93;5.27;;;0.70;36.40;;;;;;10357127;28;20727;-75
2024/01/22 03:27:32;;;;;;;6.17;5.10;;;0.70;36.50;;;;;;10362314;28;20222;-74
2024/01/22 03:32:35;;;;;;;6.20;5.60;;;0.80;36.50;;;;;;10353111;28;20717;-75
2024/01/22 03:37:40;;;;;;;6.10;5.10;;;1.00;36.50;;;;;;10354103;28;20226;-74
2024/01/22 03:42:45;;;;;;;4.90;4.27;;;0.80;36.20;;;;;;10357472;28;20252;-75
2024/01/22 03:47:48;;;;;;;5.20;4.50;;;0.90;36.20;;;;;;10353464;28;20228;-75
2024/01/22 03:52:51;;;;;;;5.40;4.90;;;0.90;36.20;;;;;;10355343;28;20234;-74
2024/01/22 03:57:56;;;;;;;6.07;4.40;;;0.80;36.20;;;;;;10357506;28;20276;-75
2024/01/22 04:02:59;;;;;;;4.30;3.90;;;0.80;36.40;;;;;;10359479;28;20243;-74
2024/01/22 04:08:02;;;;;;;4.63;3.70;;;0.70;36.50;;;;;;10357797;28;20932;-74
2024/01/22 04:13:07;;;;;;;3.87;3.30;;;0.70;36.60;;;;;;10355850;28;20345;-75
2024/01/22 04:18:10;;;;;;;4.20;3.07;;;0.70;36.70;;;;;;10354515;28;20228;-74
2024/01/22 04:23:14;;;;;;;2.93;2.67;;;0.80;36.70;;;;;;10354997;28;20286;-74
2024/01/22 04:28:19;;;;;;;2.43;2.10;;;0.90;36.50;;;;;;10353197;28;20322;-75
2024/01/22 04:33:22;;;;;;;1.90;1.80;;;1.00;36.30;;;;;;10354464;28;20244;-74
2024/01/22 04:38:26;;;;;;;2.10;1.90;;;1.20;36.70;;;;;;10350534;28;20234;-74
2024/01/22 04:43:30;;;;;;;3.00;2.30;;;1.50;37.20;;;;;;10354465;28;20748;-75
2024/01/22 04:48:34;;;;;;;3.57;2.10;;;1.80;36.70;;;;;;10354668;28;20309;-75
2024/01/22 04:53:37;;;;;;;6.23;3.60;;;2.10;36.80;;;;;;10354587;28;21050;-75
2024/01/22 04:58:42;;;;;;;3.10;2.73;;;2.20;36.50;;;;;;10355573;28;20245;-75
2024/01/22 05:03:45;;;;;;;2.67;2.47;;;2.40;36.20;;;;;;10352053;28;20326;-75
2024/01/22 05:08:48;;;;;;;3.63;2.93;;;2.40;36.00;;;;;;10346568;28;20592;-75
2024/01/22 05:13:54;;;;;;;3.00;2.80;;;2.50;35.70;;;;;;10352440;28;20289;-75
2024/01/22 05:18:57;;;;;;;3.23;2.83;;;2.40;35.50;;;;;;10351548;28;20280;-75
2024/01/22 05:24:01;;;;;;;3.10;2.50;;;2.30;35.50;;;;;;10353618;28;20226;-75
2024/01/22 05:29:05;;;;;;;3.27;2.97;;;2.20;35.50;;;;;;10348255;28;20225;-75
2024/01/22 05:34:08;;;;;;;3.50;2.90;;;2.20;35.80;;;;;;10344815;28;20240;-74
2024/01/22 05:39:12;;;;;;;7.20;6.53;;;2.10;35.70;;;;;;10351215;28;20300;-75
2024/01/22 05:44:17;;;;;;;7.50;5.00;;;2.10;35.60;;;;;;10351019;28;20223;-74
2024/01/22 05:49:21;;;;;;;5.83;5.10;;;2.10;35.70;;;;;;10354737;28;20226;-74
2024/01/22 05:54:24;;;;;;;5.20;4.40;;;2.10;35.70;;;;;;10355680;28;20759;-74
2024/01/22 05:59:29;;;;;;;4.97;4.47;;;2.10;35.70;;;;;;10353980;28;20230;-74
2024/01/22 06:04:33;;;;;;;5.77;4.57;;;2.10;35.80;;;;;;10354847;28;20313;-75
2024/01/22 06:09:37;;;;;;;5.97;5.37;;;2.00;35.60;;;;;;10357971;28;20313;-74
2024/01/22 06:14:42;;;;;;;46.67;30.37;;;2.10;35.60;;;;;;10351803;28;20234;-74
2024/01/22 06:19:45;;;;;;;39.43;26.83;;;2.00;35.60;;;;;;10351163;28;20249;-76
2024/01/22 06:24:49;;;;;;;20.27;13.70;;;1.90;35.90;;;;;;10353959;28;20289;-76
2024/01/22 06:29:56;;;;;;;23.97;16.03;;;1.80;36.00;;;;;;10341782;28;20233;-75
2024/01/22 06:35:01;;;;;;;18.53;12.37;;;1.80;36.50;;;;;;10350918;28;20230;-74
2024/01/22 06:40:06;;;;;;;15.30;10.23;;;1.90;36.20;;;;;;10353464;28;20268;-74
2024/01/22 06:45:10;;;;;;;12.23;8.13;;;1.80;36.00;;;;;;10355193;28;20231;-74
2024/01/22 06:50:14;;;;;;;12.53;8.67;;;1.70;36.20;;;;;;10354496;28;20305;-75
2024/01/22 06:55:18;;;;;;;11.30;8.20;;;1.70;36.30;;;;;;10358304;28;20222;-75
2024/01/22 07:00:23;;;;;;;11.10;8.83;;;1.80;36.40;;;;;;10358022;28;20242;-75
2024/01/22 07:05:26;;;;;;;11.70;8.17;;;1.80;36.40;;;;;;10360451;28;20231;-75
2024/01/22 07:10:30;;;;;;;9.97;7.67;;;1.90;36.40;;;;;;10353036;28;20295;-75
2024/01/22 07:15:34;;;;;;;10.07;7.97;;;1.90;36.40;;;;;;10364583;28;20241;-75
2024/01/22 07:20:38;;;;;;;11.30;7.27;;;2.00;36.70;;;;;;10369039;28;20248;-75
2024/01/22 07:25:41;;;;;;;10.27;7.70;;;2.00;36.70;;;;;;10368879;28;20238;-74
2024/01/22 07:30:46;;;;;;;7.43;6.40;;;2.10;36.90;;;;;;10366017;28;20354;-74
2024/01/22 07:35:49;;;;;;;8.33;6.50;;;2.10;37.00;;;;;;10367527;28;20230;-74
2024/01/22 07:40:52;;;;;;;6.73;5.63;;;2.20;37.00;;;;;;10368568;28;20218;-75
2024/01/22 07:45:59;;;;;;;10.47;5.57;;;2.30;37.20;;;;;;10368076;28;20254;-74
2024/01/22 07:51:03;;;;;;;6.47;4.17;;;2.40;37.20;;;;;;10361999;28;20230;-74
2024/01/22 07:56:06;;;;;;;6.73;4.20;;;2.50;37.10;;;;;;10367491;28;20250;-75
2024/01/22 08:01:11;;;;;;;5.07;3.30;;;2.60;37.10;;;;;;10363219;28;20225;-75
2024/01/22 08:06:14;;;;;;;4.63;3.90;;;2.60;37.20;;;;;;10353133;28;20738;-75
2024/01/22 08:11:18;;;;;;;4.07;3.63;;;2.70;37.20;;;;;;10359079;28;20653;-73
2024/01/22 08:16:23;;;;;;;4.10;3.70;;;2.80;37.30;;;;;;10357333;28;20338;-75
2024/01/22 08:21:26;;;;;;;5.10;4.43;;;2.90;37.30;;;;;;10361423;28;20226;-74
2024/01/22 08:26:29;;;;;;;5.17;3.73;;;3.10;37.40;;;;;;10364433;28;20250;-74
2024/01/22 08:31:34;;;;;;;4.03;2.90;;;3.10;37.20;;;;;;10362861;28;20252;-74
2024/01/22 08:36:37;;;;;;;6.40;3.13;;;3.10;37.10;;;;;;10357998;28;20237;-74
2024/01/22 08:41:40;;;;;;;3.17;2.87;;;3.30;37.00;;;;;;10364476;28;20244;-74
2024/01/22 08:46:45;;;;;;;3.43;2.80;;;3.40;37.70;;;;;;10365129;28;20226;-74
2024/01/22 08:51:48;;;;;;;4.93;3.57;;;3.50;37.10;;;;;;10365316;28;20695;-74
2024/01/22 08:56:51;;;;;;;3.30;3.00;;;3.60;37.00;;;;;;10363762;28;20975;-74
2024/01/22 09:01:56;;;;;;;3.53;3.23;;;3.70;37.10;;;;;;10358997;28;20284;-75
2024/01/22 09:06:59;;;;;;;4.73;2.97;;;3.80;37.10;;;;;;10359120;28;20362;-75
2024/01/22 09:12:03;;;;;;;6.93;4.47;;;4.00;37.00;;;;;;10355931;28;20254;-75
2024/01/22 09:17:08;;;;;;;4.00;3.47;;;4.10;37.10;;;;;;10356808;28;20491;-76
2024/01/22 09:22:11;;;;;;;2.90;2.60;;;4.10;37.20;;;;;;10357697;28;20296;-75
2024/01/22 09:27:14;;;;;;;3.30;3.00;;;4.20;36.80;;;;;;10353050;28;20742;-75
2024/01/22 09:32:20;;;;;;;4.70;4.23;;;4.30;36.80;;;;;;10360352;28;20254;-75
2024/01/22 09:37:23;;;;;;;4.40;3.67;;;4.50;36.80;;;;;;10357089;28;20724;-75
2024/01/22 09:42:27;;;;;;;5.50;4.67;;;4.70;36.80;;;;;;10359266;28;20234;-75
2024/01/22 09:47:32;;;;;;;5.37;3.27;;;4.80;36.60;;;;;;10355922;28;20230;-75
2024/01/22 09:52:36;;;;;;;2.73;2.53;;;4.90;36.70;;;;;;10363682;28;20578;-75
2024/01/22 09:57:40;;;;;;;4.97;3.00;;;5.00;36.80;;;;;;10363828;28;20226;-75
2024/01/22 10:02:45;;;;;;;4.73;2.97;;;5.20;37.00;;;;;;10367212;28;20230;-74
2024/01/22 10:07:48;;;;;;;4.03;2.90;;;5.30;36.60;;;;;;10363783;28;20249;-74
2024/01/22 10:12:59;;;;;;;4.10;2.60;;;5.50;36.70;;;;;;10363725;28;20244;-75
2024/01/22 10:18:12;;;;;;;2.87;2.30;;;5.60;35.80;;;;;;10364086;28;20219;-74
2024/01/22 10:23:17;;;;;;;4.50;3.27;;;5.80;35.70;;;;;;10362780;28;20313;-76
2024/01/22 10:28:21;;;;;;;5.33;4.67;;;6.00;36.40;;;;;;10370916;28;20230;-75
2024/01/22 10:33:26;;;;;;;17.83;12.63;;;6.10;36.40;;;;;;10349645;28;20230;-75
2024/01/22 10:38:29;;;;;;;9.77;6.90;;;6.30;36.20;;;;;;10363440;28;20344;-76
2024/01/22 10:43:33;;;;;;;8.53;7.53;;;6.40;36.30;;;;;;10363967;28;20254;-73
2024/01/22 10:48:38;;;;;;;6.27;5.50;;;6.60;36.40;;;;;;10371259;28;20234;-74
2024/01/22 10:53:49;;;;;;;14.43;11.97;;;6.80;36.10;;;;;;10361498;28;20234;-74
2024/01/22 10:58:58;;;;;;;5.17;4.57;;;7.00;36.30;;;;;;10363602;28;20234;-74
2024/01/22 11:04:10;;;;;;;4.20;3.20;;;7.20;36.00;;;;;;10363460;28;20230;-75
2024/01/22 11:09:15;;;;;;;3.93;3.53;;;7.40;35.50;;;;;;10364335;28;20232;-75
2024/01/22 11:14:18;;;;;;;3.73;3.20;;;7.70;36.20;;;;;;10370449;28;20262;-75
2024/01/22 11:19:23;;;;;;;5.07;3.00;;;8.00;36.20;;;;;;10368821;28;20317;-75
2024/01/22 11:24:27;;;;;;;3.93;3.50;;;8.20;35.70;;;;;;10364780;28;20297;-75
2024/01/22 11:29:32;;;;;;;3.10;2.90;;;8.30;35.80;;;;;;10366295;28;20226;-75
2024/01/22 11:34:46;;;;;;;3.50;3.20;;;8.30;35.60;;;;;;10363243;28;20306;-75
2024/01/22 11:39:51;;;;;;;8.17;7.47;;;8.40;34.70;;;;;;10368071;28;20226;-75
2024/01/22 11:44:55;;;;;;;13.23;11.93;;;8.50;35.60;;;;;;10368942;28;20241;-75
2024/01/22 11:50:04;;;;;;;15.10;13.70;;;8.60;35.50;;;;;;10360454;28;20320;-75
2024/01/22 11:55:09;;;;;;;50.13;40.87;;;8.70;35.00;;;;;;10360936;28;20691;-75
2024/01/22 12:00:19;;;;;;;38.40;32.40;;;8.80;35.70;;;;;;10331752;28;20870;-77
2024/01/22 12:05:24;;;;;;;11.57;9.80;;;9.00;35.60;;;;;;10342373;28;20269;-76
2024/01/22 12:10:29;;;;;;;5.80;5.23;;;9.10;35.90;;;;;;10340499;28;20226;-76
2024/01/22 12:15:33;;;;;;;4.67;3.10;;;9.30;36.00;;;;;;10333922;28;20296;-77
2024/01/22 12:20:38;;;;;;;3.73;2.97;;;9.50;36.20;;;;;;10338583;28;20770;-77
2024/01/22 12:25:42;;;;;;;2.17;1.93;;;9.70;36.20;;;;;;10337467;28;20230;-76
2024/01/22 12:30:45;;;;;;;2.97;2.40;;;10.00;35.70;;;;;;10341727;28;20317;-78
2024/01/22 12:35:52;;;;;;;1.83;1.70;;;10.30;35.70;;;;;;10344038;28;20297;-76
2024/01/22 12:41:00;;;;;;;1.40;1.30;;;10.60;35.40;;;;;;10342071;28;20265;-77
2024/01/22 12:46:05;;;;;;;1.10;1.00;;;10.90;35.50;;;;;;10335656;28;20250;-76
2024/01/22 12:51:11;;;;;;;0.80;0.80;;;11.10;35.70;;;;;;10329012;28;20234;-76
2024/01/22 12:56:15;;;;;;;2.93;0.97;;;11.30;35.70;;;;;;10331511;28;20234;-76
2024/01/22 13:01:19;;;;;;;2.23;1.10;;;11.60;35.90;;;;;;10338762;28;20304;-75
2024/01/22 13:06:23;;;;;;;0.90;0.90;;;11.90;35.60;;;;;;10338016;28;20882;-77
2024/01/22 13:11:28;;;;;;;2.30;2.10;;;12.20;35.40;;;;;;10350665;28;20301;-76
2024/01/22 13:16:33;;;;;;;7.10;6.40;;;12.40;35.30;;;;;;10348958;28;20230;-77
2024/01/22 13:21:38;;;;;;;2.10;1.90;;;12.60;35.20;;;;;;10346872;28;20295;-77
2024/01/22 13:26:42;;;;;;;1.77;1.60;;;12.70;34.50;;;;;;10341589;28;20240;-79
2024/01/22 13:31:46;;;;;;;1.10;1.00;;;12.70;34.70;;;;;;10352496;28;20289;-78
2024/01/22 13:36:51;;;;;;;1.10;1.10;;;12.80;35.30;;;;;;10349620;28;20324;-77
2024/01/22 13:41:54;;;;;;;2.20;2.00;;;12.90;34.40;;;;;;10345253;28;20719;-79
2024/01/22 13:46:58;;;;;;;3.27;1.70;;;12.90;34.50;;;;;;10346160;28;20648;-80
2024/01/22 13:52:06;;;;;;;6.80;5.97;;;13.00;34.60;;;;;;10336106;28;20317;-77
2024/01/22 13:57:16;;;;;;;4.43;1.97;;;13.00;34.40;;;;;;10328946;28;20234;-76
2024/01/22 14:02:19;;;;;;;1.40;1.30;;;13.00;34.60;;;;;;10331084;28;20230;-77
2024/01/22 14:07:23;;;;;;;2.60;2.13;;;13.00;34.60;;;;;;10334576;28;20245;-77
2024/01/22 14:12:27;;;;;;;1.20;1.10;;;13.00;34.30;;;;;;10343748;28;20241;-76
2024/01/22 14:17:30;;;;;;;1.80;1.70;;;13.00;34.40;;;;;;10341348;28;20236;-76
2024/01/22 14:22:36;;;;;;;2.30;2.10;;;12.90;34.50;;;;;;10334649;28;20226;-77
2024/01/22 14:27:40;;;;;;;1.20;1.10;;;12.90;34.50;;;;;;10330269;28;20237;-76
2024/01/22 14:32:44;;;;;;;1.30;1.20;;;12.90;34.60;;;;;;10337742;28;20238;-75
2024/01/22 14:37:50;;;;;;;2.70;2.50;;;12.90;34.60;;;;;;10332774;28;20226;-76
2024/01/22 14:42:53;;;;;;;2.47;2.27;;;12.90;34.60;;;;;;10330826;28;20223;-76
2024/01/22 14:47:56;;;;;;;1.63;1.40;;;13.00;34.80;;;;;;10326565;28;20222;-75
2024/01/22 14:53:02;;;;;;;1.30;1.20;;;13.00;34.90;;;;;;10335139;28;20233;-77
2024/01/22 14:58:07;;;;;;;1.00;1.00;;;13.10;35.10;;;;;;10335551;28;20262;-76
2024/01/22 15:03:10;;;;;;;1.03;0.93;;;13.10;35.30;;;;;;10340484;28;20218;-74
2024/01/22 15:08:15;;;;;;;1.40;1.30;;;13.10;35.70;;;;;;10340612;28;20230;-76
2024/01/22 15:13:18;;;;;;;1.63;1.53;;;13.00;35.90;;;;;;10348899;28;20273;-76
2024/01/22 15:18:21;;;;;;;1.30;1.20;;;13.00;36.20;;;;;;10353050;28;20307;-75
2024/01/22 15:23:26;;;;;;;1.50;1.30;;;12.90;36.40;;;;;;10352381;28;20324;-75
2024/01/22 15:28:30;;;;;;;1.87;1.20;;;12.80;36.50;;;;;;10352724;28;20305;-78
2024/01/22 15:33:33;;;;;;;1.40;1.30;;;12.90;36.70;;;;;;10339073;28;20256;-76
2024/01/22 15:38:44;;;;;;;1.33;1.23;;;12.80;36.60;;;;;;10346178;28;20313;-77
2024/01/22 15:43:49;;;;;;;1.30;1.17;;;12.80;37.10;;;;;;10331941;28;20238;-76
2024/01/22 15:48:52;;;;;;;1.70;1.60;;;12.80;37.00;;;;;;10328550;28;20227;-76
2024/01/22 15:53:57;;;;;;;1.13;1.07;;;12.80;37.00;;;;;;10334984;28;20238;-78
2024/01/22 15:59:00;;;;;;;1.40;1.27;;;12.80;37.00;;;;;;10340450;28;20235;-78
2024/01/22 16:04:03;;;;;;;1.57;1.20;;;12.80;36.90;;;;;;10337879;28;20325;-75
2024/01/22 16:09:09;;;;;;;1.00;1.00;;;12.80;37.00;;;;;;10334162;28;20227;-75
2024/01/22 16:14:13;;;;;;;1.30;1.20;;;12.80;37.70;;;;;;10298256;28;20239;-75
2024/01/22 16:19:18;;;;;;;1.90;1.30;;;12.70;37.60;;;;;;10331082;28;20223;-77
2024/01/22 16:24:27;;;;;;;1.20;1.00;;;12.60;37.80;;;;;;10359879;28;20230;-78
2024/01/22 16:29:30;;;;;;;1.33;1.00;;;12.50;38.40;;;;;;10350169;28;20789;-76
2024/01/22 16:34:34;;;;;;;1.73;1.10;;;12.30;38.30;;;;;;10356878;28;20308;-79
2024/01/22 16:39:39;;;;;;;1.27;1.17;;;12.20;38.70;;;;;;10359404;28;20236;-74
2024/01/22 16:44:42;;;;;;;1.17;1.07;;;12.10;39.40;;;;;;10355766;28;20237;-74
2024/01/22 16:49:45;;;;;;;1.57;1.30;;;11.90;39.00;;;;;;10357349;28;20252;-75
2024/01/22 16:54:50;;;;;;;1.97;1.23;;;11.80;39.10;;;;;;10355305;28;20235;-76
2024/01/22 16:59:53;;;;;;;1.83;1.10;;;11.70;39.90;;;;;;10354580;28;20778;-76
2024/01/22 17:04:56;;;;;;;1.30;1.17;;;11.70;39.60;;;;;;10361105;28;20241;-76
2024/01/22 17:10:01;;;;;;;1.77;1.20;;;11.50;39.90;;;;;;10359568;28;20254;-76
2024/01/22 17:15:06;;;;;;;1.53;1.10;;;11.40;41.10;;;;;;10359060;28;20309;-76
2024/01/22 17:20:10;;;;;;;0.97;0.97;;;11.30;41.00;;;;;;10358032;28;20222;-76
2024/01/22 17:25:15;;;;;;;1.80;1.00;;;11.30;40.90;;;;;;10344131;28;20235;-76
2024/01/22 17:30:18;;;;;;;0.93;0.93;;;11.20;41.00;;;;;;10326609;28;20308;-76
2024/01/22 17:35:22;;;;;;;1.10;1.10;;;11.10;40.90;;;;;;10356536;28;20831;-76
2024/01/22 17:40:26;;;;;;;1.23;1.13;;;11.10;40.90;;;;;;10352794;28;20226;-77
2024/01/22 17:45:30;;;;;;;1.63;1.20;;;11.10;41.30;;;;;;10366939;28;20261;-78
2024/01/22 17:50:33;;;;;;;1.00;1.00;;;11.00;40.80;;;;;;10368700;28;20229;-77
2024/01/22 17:55:38;;;;;;;1.40;1.30;;;11.00;41.70;;;;;;10363775;28;20662;-77
2024/01/22 18:00:43;;;;;;;1.57;1.20;;;11.00;42.10;;;;;;10364158;28;20250;-77
2024/01/22 18:05:46;;;;;;;1.33;1.10;;;10.90;41.50;;;;;;10361711;28;20260;-77
2024/01/22 18:10:51;;;;;;;1.23;1.20;;;10.90;41.60;;;;;;10357765;28;20250;-77
2024/01/22 18:15:59;;;;;;;1.30;1.20;;;10.90;42.00;;;;;;10362316;28;20241;-76
2024/01/22 18:21:03;;;;;;;1.23;1.00;;;10.90;41.50;;;;;;10362920;28;20222;-79
2024/01/22 18:26:08;;;;;;;1.50;1.30;;;10.90;42.10;;;;;;10366172;28;20325;-78
2024/01/22 18:31:11;;;;;;;1.10;1.00;;;10.90;42.60;;;;;;10369232;28;20230;-77
2024/01/22 18:36:17;;;;;;;1.10;1.10;;;10.90;42.50;;;;;;10368988;28;20230;-77
2024/01/22 18:41:26;;;;;;;1.37;1.10;;;10.80;42.70;;;;;;10384172;28;20238;-77
2024/01/22 18:46:29;;;;;;;1.37;1.20;;;10.80;43.20;;;;;;10376557;28;20313;-77
2024/01/22 18:51:32;;;;;;;1.57;1.10;;;10.80;42.30;;;;;;10372574;28;20771;-77
2024/01/22 18:56:37;;;;;;;1.37;1.27;;;10.80;42.50;;;;;;10371373;28;20241;-77
2024/01/22 19:01:44;;;;;;;1.80;1.70;;;10.80;42.80;;;;;;10372055;28;20225;-77
2024/01/22 19:06:47;;;;;;;2.00;1.90;;;10.70;42.30;;;;;;10372897;28;20808;-77
2024/01/22 19:11:52;;;;;;;1.33;1.23;;;10.70;42.20;;;;;;10372023;28;20234;-77
2024/01/22 19:16:55;;;;;;;1.00;1.00;;;10.70;42.70;;;;;;10368829;28;20249;-77
2024/01/22 19:21:58;;;;;;;1.57;1.10;;;10.60;42.30;;;;;;10370913;28;20230;-79
2024/01/22 19:27:03;;;;;;;2.50;2.10;;;10.70;42.30;;;;;;10370258;28;20237;-77
2024/01/22 19:32:07;;;;;;;1.60;1.50;;;10.60;42.80;;;;;;10369148;28;20226;-77
2024/01/22 19:37:10;;;;;;;1.50;1.40;;;10.60;42.20;;;;;;10369187;28;20739;-77
2024/01/22 19:42:15;;;;;;;1.57;1.47;;;10.60;42.20;;;;;;10368870;28;20810;-77
2024/01/22 19:47:20;;;;;;;1.20;1.13;;;10.60;42.50;;;;;;10360746;28;20230;-77
2024/01/22 19:52:23;;;;;;;1.23;1.23;;;10.60;42.10;;;;;;10352346;28;20234;-81
2024/01/22 19:57:27;;;;;;;1.30;1.20;;;10.60;42.20;;;;;;10348769;28;20273;-79
2024/01/22 20:02:31;;;;;;;1.40;1.30;;;10.60;42.50;;;;;;10330241;28;20223;-79
2024/01/22 20:07:34;;;;;;;1.70;1.60;;;10.60;42.20;;;;;;10359936;28;20241;-79
2024/01/22 20:12:38;;;;;;;1.60;1.50;;;10.60;42.50;;;;;;10365748;28;20257;-79
2024/01/22 20:17:42;;;;;;;1.70;1.60;;;10.60;42.90;;;;;;10369241;28;20230;-78
2024/01/22 20:22:46;;;;;;;1.83;1.60;;;10.50;42.40;;;;;;10366002;28;20245;-80
2024/01/22 20:27:51;;;;;;;1.33;1.00;;;10.60;42.90;;;;;;10370145;28;20778;-81
2024/01/22 20:32:54;;;;;;;1.37;1.27;;;10.60;42.40;;;;;;10367989;28;20257;-83
2024/01/22 20:37:57;;;;;;;1.53;1.40;;;10.60;41.90;;;;;;10358517;28;20314;-81
2024/01/22 20:43:18;;;;;;;1.67;1.57;;;10.50;41.90;;;;;;10382869;28;20261;-83
2024/01/22 20:48:28;;;;;;;1.10;1.10;;;10.50;43.20;;;;;;10388200;28;20284;-84
2024/01/22 20:53:33;;;;;;;1.60;1.50;;;10.40;42.70;;;;;;10389663;28;20313;-83
2024/01/22 20:58:41;;;;;;;1.70;1.60;;;10.40;41.80;;;;;;10387423;28;20230;-84
2024/01/22 21:03:46;;;;;;;2.33;1.80;;;10.30;42.50;;;;;;10387599;28;20226;-84
2024/01/22 21:08:51;;;;;;;2.13;1.30;;;10.20;42.00;;;;;;10377429;28;20304;-84
2024/01/22 21:20:11;;;;;;;3.73;2.70;;;10.20;42.60;;;;;;10327808;28;20706;-71
2024/01/22 21:25:14;;;;;;;5.43;3.13;;;10.10;41.90;;;;;;10334801;28;20329;-71
2024/01/22 21:30:18;;;;;;;2.67;1.73;;;10.00;41.70;;;;;;10335316;28;20374;-71
2024/01/22 21:35:22;;;;;;;1.40;1.30;;;10.00;41.70;;;;;;10334474;28;20828;-69
2024/01/22 21:40:26;;;;;;;1.33;1.23;;;9.90;42.90;;;;;;10336208;28;20318;-69
2024/01/22 21:45:29;;;;;;;1.33;1.23;;;9.90;42.90;;;;;;10331199;28;20230;-69
2024/01/22 21:50:34;;;;;;;1.53;1.40;;;9.80;43.10;;;;;;10333723;28;20230;-69
2024/01/22 21:55:37;;;;;;;1.50;1.40;;;9.70;43.60;;;;;;10334167;28;20237;-69
2024/01/22 22:00:41;;;;;;;1.53;1.43;;;9.60;43.60;;;;;;10331374;28;20352;-69
2024/01/22 22:05:47;;;;;;;1.60;1.50;;;9.50;43.80;;;;;;10335735;28;20230;-69
2024/01/22 22:10:53;;;;;;;1.53;1.43;;;9.50;44.30;;;;;;10329612;28;20281;-73
2024/01/22 22:15:57;;;;;;;1.70;1.40;;;9.50;44.70;;;;;;10334909;28;20231;-74
2024/01/22 22:21:03;;;;;;;1.53;1.43;;;9.40;44.40;;;;;;10336381;28;20240;-74
2024/01/22 22:26:06;;;;;;;1.20;1.20;;;9.40;44.60;;;;;;10332171;28;20300;-73
2024/01/22 22:31:09;;;;;;;1.97;1.83;;;9.40;44.20;;;;;;10335289;28;20262;-74
2024/01/22 22:36:16;;;;;;;1.50;1.40;;;9.40;44.90;;;;;;10329642;28;21194;-74
2024/01/22 22:41:20;;;;;;;1.47;1.37;;;9.40;44.80;;;;;;10329413;28;20230;-74
2024/01/22 22:46:23;;;;;;;1.50;1.40;;;9.50;44.20;;;;;;10332384;28;20350;-69
2024/01/22 22:51:28;;;;;;;1.20;1.10;;;9.40;44.30;;;;;;10322055;28;20237;-69
2024/01/22 22:56:31;;;;;;;1.20;1.10;;;9.40;45.20;;;;;;10333025;28;20786;-69
2024/01/22 23:01:34;;;;;;;1.30;1.20;;;9.50;44.20;;;;;;10329667;28;20230;-69
2024/01/22 23:06:39;;;;;;;2.43;1.00;;;9.50;44.40;;;;;;10329098;28;20238;-69
2024/01/22 23:11:42;;;;;;;1.10;0.97;;;9.50;44.70;;;;;;10328916;28;20234;-69
2024/01/22 23:16:46;;;;;;;1.00;0.90;;;9.50;44.30;;;;;;10333574;28;20615;-68
2024/01/22 23:21:51;;;;;;;1.67;0.97;;;9.50;44.00;;;;;;10330336;28;20227;-71
2024/01/22 23:26:55;;;;;;;1.57;0.80;;;9.60;44.30;;;;;;10339904;28;20227;-71
2024/01/22 23:31:59;;;;;;;0.93;0.87;;;9.60;43.80;;;;;;10335906;28;20286;-71
2024/01/22 23:37:03;;;;;;;1.97;0.80;;;9.60;43.80;;;;;;10335572;28;20223;-71
2024/01/22 23:42:07;;;;;;;0.77;0.70;;;9.60;44.00;;;;;;10356870;23;20241;-84
2024/01/22 23:47:11;;;;;;;1.03;0.93;;;9.50;43.90;;;;;;10342472;28;20741;-84
2024/01/22 23:52:16;;;;;;;1.00;0.60;;;9.60;43.80;;;;;;10339841;28;20780;-83
2024/01/22 23:57:19;;;;;;;1.37;0.80;;;9.60;44.80;;;;;;10333699;28;20278;-84
